Time;durP1;ratioP1;P1;durP2;ratioP2;P2;SDS_P1;SDS_P2;PMS_P1;PMS_P2;Temp;Humidity;BMP_temperature;BMP_pressure;BME280_temperature;BME280_humidity;BME280_pressure;Samples;Min_cycle;Max_cycle;Signal;HPM_P1;HPM_P2
2022/12/06 00:00:54;;;;;;;10.32;3.50;;;5.70;99.90;;;;;;5066241;28;20110;-56
2022/12/06 00:03:20;;;;;;;11.00;3.58;;;5.80;99.90;;;;;;5082481;28;20459;-58
2022/12/06 00:05:45;;;;;;;10.25;3.40;;;5.70;99.90;;;;;;5086230;28;20036;-54
2022/12/06 00:08:11;;;;;;;5.70;2.80;;;5.80;99.90;;;;;;5086778;28;20406;-58
2022/12/06 00:10:37;;;;;;;6.07;2.40;;;5.80;99.90;;;;;;5077454;28;20242;-57
2022/12/06 00:13:04;;;;;;;5.70;2.88;;;5.70;99.90;;;;;;5095838;27;20043;-57
2022/12/06 00:15:33;;;;;;;7.97;2.53;;;5.70;99.90;;;;;;5077133;28;20036;-57
2022/12/06 00:17:59;;;;;;;7.93;2.58;;;5.70;99.90;;;;;;5083039;28;20127;-58
2022/12/06 00:20:25;;;;;;;7.78;2.88;;;5.70;99.90;;;;;;5064972;28;20039;-57
2022/12/06 00:22:51;;;;;;;6.15;2.67;;;5.70;99.90;;;;;;5057067;28;20403;-58
2022/12/06 00:25:16;;;;;;;6.63;1.98;;;5.70;99.90;;;;;;5079605;28;20050;-58
2022/12/06 00:27:42;;;;;;;9.55;3.17;;;5.70;99.90;;;;;;5076682;28;20051;-59
2022/12/06 00:30:08;;;;;;;8.27;2.33;;;5.70;99.90;;;;;;5084863;28;20044;-58
2022/12/06 00:32:34;;;;;;;5.70;2.38;;;5.70;99.90;;;;;;5081389;28;20556;-58
2022/12/06 00:35:00;;;;;;;6.28;2.65;;;5.70;99.90;;;;;;5101638;27;20071;-57
2022/12/06 00:37:26;;;;;;;9.45;2.47;;;5.70;99.90;;;;;;5079320;28;20111;-57
2022/12/06 00:39:52;;;;;;;4.10;2.17;;;5.80;99.90;;;;;;5082344;28;20391;-58
2022/12/06 00:42:17;;;;;;;11.82;3.15;;;5.70;99.90;;;;;;5073053;28;20035;-58
2022/12/06 00:44:43;;;;;;;7.10;2.47;;;5.70;99.90;;;;;;5079067;28;20036;-56
2022/12/06 00:47:09;;;;;;;7.53;2.67;;;5.70;99.90;;;;;;5080542;28;20035;-55
2022/12/06 00:49:34;;;;;;;7.50;2.63;;;5.70;99.90;;;;;;5079469;28;20401;-57
2022/12/06 00:52:00;;;;;;;5.70;2.25;;;5.70;99.90;;;;;;5095863;28;20035;-56
2022/12/06 00:54:26;;;;;;;6.55;2.15;;;5.70;99.90;;;;;;5081733;28;20035;-57
2022/12/06 00:56:52;;;;;;;10.10;3.00;;;5.70;99.90;;;;;;5082380;28;20088;-58
2022/12/06 00:59:18;;;;;;;7.15;2.40;;;5.70;99.90;;;;;;5078861;28;20256;-57
2022/12/06 01:01:43;;;;;;;8.60;3.03;;;5.70;99.90;;;;;;5080237;28;20039;-56
2022/12/06 01:04:09;;;;;;;6.20;2.47;;;5.70;99.90;;;;;;5081785;28;20043;-55
2022/12/06 01:06:36;;;;;;;9.77;3.25;;;5.70;99.90;;;;;;5056971;28;20074;-54
2022/12/06 01:09:08;;;;;;;7.30;2.80;;;5.60;99.90;;;;;;5080025;28;20130;-57
2022/12/06 01:11:34;;;;;;;10.55;2.95;;;5.60;99.90;;;;;;5078718;28;20039;-57
2022/12/06 01:14:00;;;;;;;8.88;2.72;;;5.70;99.90;;;;;;5051468;28;20050;-55
2022/12/06 01:16:28;;;;;;;8.57;3.17;;;5.60;99.90;;;;;;5083974;28;20043;-56
2022/12/06 01:18:56;;;;;;;7.55;2.50;;;5.60;99.90;;;;;;5064984;28;20108;-57
2022/12/06 01:21:22;;;;;;;6.75;2.90;;;5.60;99.90;;;;;;5075651;28;20123;-56
2022/12/06 01:23:48;;;;;;;8.07;2.65;;;5.60;99.90;;;;;;5099170;28;20077;-55
2022/12/06 01:26:20;;;;;;;8.93;2.70;;;5.60;99.90;;;;;;5047480;28;20054;-54
2022/12/06 01:28:46;;;;;;;10.32;3.63;;;5.60;99.90;;;;;;5088963;22;20030;-58
2022/12/06 01:31:12;;;;;;;6.05;2.63;;;5.60;99.90;;;;;;5081985;28;20048;-59
2022/12/06 01:33:38;;;;;;;9.63;3.10;;;5.60;99.90;;;;;;5073368;28;20044;-58
2022/12/06 01:36:04;;;;;;;5.05;2.55;;;5.60;99.90;;;;;;5080395;28;20043;-59
2022/12/06 01:38:30;;;;;;;7.35;2.95;;;5.60;99.90;;;;;;5070942;28;20134;-59
2022/12/06 01:40:56;;;;;;;6.65;2.50;;;5.60;99.90;;;;;;5078337;28;20040;-58
2022/12/06 01:43:28;;;;;;;9.27;2.80;;;5.60;99.90;;;;;;5073249;28;20044;-58
2022/12/06 01:45:54;;;;;;;7.35;3.00;;;5.60;99.90;;;;;;5078053;28;20039;-56
2022/12/06 01:48:24;;;;;;;6.43;3.08;;;5.60;99.90;;;;;;5073734;28;20470;-58
2022/12/06 01:50:52;;;;;;;10.50;2.90;;;5.60;99.90;;;;;;5078668;28;20398;-57
2022/12/06 01:53:18;;;;;;;5.72;2.85;;;5.60;99.90;;;;;;5075520;28;20380;-57
2022/12/06 01:55:45;;;;;;;8.98;3.28;;;5.60;99.90;;;;;;5077718;28;20048;-57
2022/12/06 01:58:26;;;;;;;9.05;3.17;;;5.60;99.90;;;;;;5088757;28;20786;-56
2022/12/06 02:00:52;;;;;;;8.55;2.97;;;5.70;99.90;;;;;;5077440;28;20115;-58
2022/12/06 02:03:26;;;;;;;8.55;3.03;;;5.60;99.90;;;;;;5077957;28;20194;-56
2022/12/06 02:05:53;;;;;;;7.50;3.30;;;5.60;99.90;;;;;;5079068;28;20575;-53
2022/12/06 02:08:20;;;;;;;11.00;4.13;;;5.60;99.90;;;;;;5082250;28;20214;-57
2022/12/06 02:10:46;;;;;;;7.47;3.10;;;5.70;99.90;;;;;;5077198;28;20090;-58
2022/12/06 02:13:12;;;;;;;9.82;3.13;;;5.60;99.90;;;;;;5077661;28;20139;-55
2022/12/06 02:15:50;;;;;;;7.72;3.35;;;5.60;99.90;;;;;;5071291;28;20401;-53
2022/12/06 02:18:44;;;;;;;12.13;3.80;;;5.60;99.90;;;;;;5081817;28;20045;-59
2022/12/06 02:21:34;;;;;;;11.32;3.03;;;5.60;99.90;;;;;;5082056;28;20127;-58
2022/12/06 02:24:26;;;;;;;6.90;3.25;;;5.60;99.90;;;;;;5075894;28;20051;-57
2022/12/06 02:26:59;;;;;;;9.32;3.40;;;5.60;99.90;;;;;;5076366;28;20434;-56
2022/12/06 02:29:46;;;;;;;5.97;3.03;;;5.50;99.90;;;;;;5077264;28;20402;-57
2022/12/06 02:32:24;;;;;;;7.82;2.75;;;5.50;99.90;;;;;;5060791;28;20241;-57
2022/12/06 02:35:19;;;;;;;10.13;3.38;;;5.40;99.90;;;;;;5075470;28;20048;-55
2022/12/06 02:38:14;;;;;;;10.27;3.30;;;5.40;99.90;;;;;;5078357;28;20097;-59
2022/12/06 02:40:49;;;;;;;6.88;3.30;;;5.40;99.90;;;;;;5067854;28;20048;-57
2022/12/06 02:43:24;;;;;;;8.70;3.42;;;5.40;99.90;;;;;;5078297;28;21368;-55
2022/12/06 02:45:55;;;;;;;6.03;3.10;;;5.40;99.90;;;;;;5076513;28;21927;-60
2022/12/06 02:48:24;;;;;;;6.07;2.83;;;5.40;99.90;;;;;;5079988;28;20048;-56
2022/12/06 02:50:56;;;;;;;7.97;3.42;;;5.30;99.90;;;;;;5076089;28;20048;-56
2022/12/06 02:53:24;;;;;;;13.05;3.38;;;5.30;99.90;;;;;;5082589;28;20243;-60
2022/12/06 02:55:50;;;;;;;8.38;3.58;;;5.30;99.90;;;;;;5076686;28;20485;-60
2022/12/06 02:58:16;;;;;;;9.15;4.00;;;5.20;99.90;;;;;;5076147;28;20040;-58
2022/12/06 03:00:45;;;;;;;8.23;3.35;;;5.20;99.90;;;;;;5082005;28;20066;-60
2022/12/06 03:03:32;;;;;;;7.97;3.25;;;5.20;99.90;;;;;;5063689;28;20047;-59
2022/12/06 03:06:01;;;;;;;7.07;3.22;;;5.20;99.90;;;;;;5073725;28;20469;-57
2022/12/06 03:08:52;;;;;;;6.05;3.00;;;5.20;99.90;;;;;;5077008;28;20043;-58
2022/12/06 03:11:18;;;;;;;7.13;3.55;;;5.20;99.90;;;;;;5079235;28;20068;-59
2022/12/06 03:13:49;;;;;;;8.45;3.20;;;5.20;99.90;;;;;;5077389;28;20486;-59
2022/12/06 03:16:33;;;;;;;8.30;3.80;;;5.20;99.90;;;;;;5082673;28;20136;-60
2022/12/06 03:19:14;;;;;;;8.43;3.17;;;5.20;99.90;;;;;;5078962;28;20072;-56
2022/12/06 03:21:56;;;;;;;7.65;3.53;;;5.20;99.90;;;;;;5081389;28;20040;-58
2022/12/06 03:24:24;;;;;;;10.40;3.72;;;5.30;99.90;;;;;;5075317;28;20418;-56
2022/12/06 03:26:51;;;;;;;12.43;4.68;;;5.30;99.90;;;;;;5081253;28;20040;-57
2022/12/06 03:29:22;;;;;;;10.63;4.05;;;5.30;99.90;;;;;;5077742;28;20422;-54
2022/12/06 03:31:50;;;;;;;9.70;4.00;;;5.20;99.90;;;;;;5076199;28;20391;-57
2022/12/06 03:34:18;;;;;;;11.13;5.28;;;5.20;99.90;;;;;;5074651;28;20112;-57
2022/12/06 03:36:46;;;;;;;8.50;3.92;;;5.20;99.90;;;;;;5075597;28;20044;-56
2022/12/06 03:39:18;;;;;;;14.18;4.65;;;5.20;99.90;;;;;;5049809;28;20114;-59
2022/12/06 03:41:52;;;;;;;9.20;3.85;;;5.20;99.90;;;;;;5078417;28;20401;-58
2022/12/06 03:44:20;;;;;;;9.73;3.95;;;5.20;99.90;;;;;;5080012;28;20036;-57
2022/12/06 03:46:53;;;;;;;9.88;3.47;;;5.20;99.90;;;;;;5078207;28;20036;-58
2022/12/06 03:49:27;;;;;;;10.80;4.10;;;5.20;99.90;;;;;;5078233;28;20048;-58
2022/12/06 03:51:53;;;;;;;12.10;4.32;;;5.20;99.90;;;;;;5080559;28;20563;-57
2022/12/06 03:54:19;;;;;;;7.45;3.88;;;5.20;99.90;;;;;;5100812;27;20067;-60
2022/12/06 03:56:45;;;;;;;10.77;3.60;;;5.20;99.90;;;;;;5079248;28;20072;-56
2022/12/06 03:59:10;;;;;;;6.70;3.38;;;5.20;99.90;;;;;;5076805;28;20041;-58
2022/12/06 04:01:38;;;;;;;5.57;2.90;;;5.20;99.90;;;;;;5077982;28;20040;-55
2022/12/06 04:04:04;;;;;;;9.77;3.55;;;5.20;99.90;;;;;;5065035;28;20036;-57
2022/12/06 04:06:30;;;;;;;7.68;3.38;;;5.20;99.90;;;;;;5078658;28;20360;-56
2022/12/06 04:09:51;;;;;;;12.05;3.60;;;5.20;99.90;;;;;;5079068;28;20050;-59
2022/12/06 04:11:41;;;;;;;12.05;3.60;;;5.20;99.90;;;;;;5079742;28;20052;-58
2022/12/06 04:14:07;;;;;;;9.20;3.63;;;5.30;99.90;;;;;;5060061;28;20051;-56
2022/12/06 04:19:17;;;;;;;7.15;2.83;;;5.30;99.90;;;;;;5074070;28;20257;-58
2022/12/06 04:24:29;;;;;;;9.48;2.90;;;5.30;99.90;;;;;;5044152;28;20127;-59
2022/12/06 04:28:40;;;;;;;7.03;3.22;;;5.30;99.90;;;;;;5073874;28;20111;-58
2022/12/06 04:40:46;;;;;;;3.67;1.70;;;5.20;99.90;;;;;;5079873;28;20055;-57
2022/12/06 04:45:56;;;;;;;3.50;1.50;;;5.30;99.90;;;;;;5077254;28;20676;-57
2022/12/06 04:48:22;;;;;;;4.90;1.30;;;5.30;99.90;;;;;;5078036;28;20083;-57
2022/12/06 04:50:51;;;;;;;2.92;1.38;;;5.30;99.90;;;;;;5071588;28;20058;-60
2022/12/06 04:53:17;;;;;;;4.30;1.48;;;5.30;99.90;;;;;;5076366;28;20087;-59
2022/12/06 04:55:47;;;;;;;5.60;1.48;;;5.30;99.90;;;;;;5079170;28;20079;-59
2022/12/06 04:58:14;;;;;;;4.18;1.13;;;4.90;99.90;;;;;;5081785;28;20198;-58
2022/12/06 05:00:42;;;;;;;5.47;1.40;;;5.30;99.90;;;;;;5078728;28;20066;-57
2022/12/06 05:03:12;;;;;;;7.20;1.85;;;5.30;99.90;;;;;;5077027;28;20040;-58
2022/12/06 05:05:38;;;;;;;4.22;1.52;;;5.30;99.90;;;;;;5077216;28;20040;-58
2022/12/06 05:08:04;;;;;;;5.65;1.13;;;5.30;99.90;;;;;;5064081;28;20066;-57
2022/12/06 05:10:30;;;;;;;8.60;1.75;;;5.30;99.90;;;;;;5073901;28;20079;-58
2022/12/06 05:12:56;;;;;;;4.22;2.03;;;5.30;99.90;;;;;;5072063;28;20324;-59
2022/12/06 05:15:22;;;;;;;3.97;1.35;;;5.30;99.90;;;;;;5078117;28;20044;-58
2022/12/06 05:17:48;;;;;;;4.93;1.30;;;5.30;99.90;;;;;;5066571;28;20043;-58
2022/12/06 05:20:13;;;;;;;5.78;1.40;;;5.30;99.90;;;;;;5078347;28;20040;-59
2022/12/06 05:22:40;;;;;;;5.10;1.27;;;5.30;99.90;;;;;;5076083;28;20068;-58
2022/12/06 05:25:06;;;;;;;2.33;1.33;;;5.30;99.90;;;;;;5075415;28;20375;-58
2022/12/06 05:27:32;;;;;;;2.40;1.45;;;5.30;99.90;;;;;;5077083;28;20135;-57
2022/12/06 05:29:58;;;;;;;4.75;1.40;;;5.40;99.90;;;;;;5078244;28;20138;-58
2022/12/06 05:32:24;;;;;;;2.88;0.93;;;5.30;99.90;;;;;;5079454;28;20135;-58
2022/12/06 05:34:49;;;;;;;2.80;1.20;;;5.30;99.90;;;;;;5074144;28;20032;-57
2022/12/06 05:37:16;;;;;;;5.03;1.70;;;5.20;99.90;;;;;;5046420;28;20040;-57
2022/12/06 05:39:41;;;;;;;3.00;1.08;;;5.10;99.90;;;;;;5081801;28;20036;-57
2022/12/06 05:42:07;;;;;;;3.70;1.30;;;5.10;99.90;;;;;;5079539;28;20041;-59
2022/12/06 05:44:33;;;;;;;6.28;1.55;;;5.00;99.90;;;;;;5086477;28;20403;-58
2022/12/06 05:46:59;;;;;;;4.10;2.00;;;5.00;99.90;;;;;;5097660;28;20044;-56
2022/12/06 05:49:25;;;;;;;4.10;2.30;;;5.00;99.90;;;;;;5081562;28;20039;-59
2022/12/06 05:51:51;;;;;;;8.02;2.47;;;4.90;99.90;;;;;;5078540;28;20101;-58
2022/12/06 05:54:17;;;;;;;6.60;2.15;;;4.90;99.90;;;;;;5082807;28;20220;-57
2022/12/06 05:56:42;;;;;;;4.13;1.60;;;4.90;99.90;;;;;;5079286;28;20137;-58
2022/12/06 05:59:08;;;;;;;2.58;1.40;;;4.80;99.90;;;;;;5064968;28;20036;-59
2022/12/06 06:01:34;;;;;;;3.35;1.83;;;4.80;99.90;;;;;;5074734;28;20040;-57
2022/12/06 06:04:00;;;;;;;6.30;1.70;;;4.70;99.90;;;;;;5077126;28;20032;-57
2022/12/06 06:06:26;;;;;;;7.20;1.90;;;4.60;99.90;;;;;;5058763;28;20127;-58
2022/12/06 06:08:52;;;;;;;6.35;2.03;;;4.60;99.90;;;;;;5084055;28;20040;-58
2022/12/06 06:11:18;;;;;;;5.20;1.88;;;4.50;99.90;;;;;;5083838;28;20052;-58
2022/12/06 06:13:43;;;;;;;4.38;1.75;;;4.50;99.90;;;;;;5081111;28;20502;-58
2022/12/06 06:16:09;;;;;;;4.47;1.90;;;4.40;99.90;;;;;;5078003;28;20044;-57
2022/12/06 06:18:35;;;;;;;6.10;1.80;;;4.40;99.90;;;;;;5076229;28;20503;-57
2022/12/06 06:21:00;;;;;;;9.48;2.30;;;4.30;99.90;;;;;;5078822;28;20180;-58
2022/12/06 06:23:27;;;;;;;6.50;2.60;;;4.30;99.90;;;;;;5079555;28;20067;-58
2022/12/06 06:25:53;;;;;;;7.72;2.30;;;4.20;99.90;;;;;;5066106;28;20135;-59
2022/12/06 06:28:19;;;;;;;7.22;2.00;;;4.10;99.90;;;;;;5079180;28;20031;-59
2022/12/06 06:30:48;;;;;;;6.53;2.28;;;4.10;99.90;;;;;;5076896;28;20552;-58
2022/12/06 06:33:14;;;;;;;24.15;7.85;;;4.00;99.90;;;;;;5077068;28;20419;-59
2022/12/06 06:35:40;;;;;;;88.45;34.40;;;4.00;99.90;;;;;;5077711;28;20048;-59
2022/12/06 06:38:06;;;;;;;106.13;44.42;;;3.80;99.90;;;;;;5075884;28;20294;-59
2022/12/06 06:40:32;;;;;;;61.95;24.08;;;3.80;99.90;;;;;;5074901;28;20036;-59
2022/12/06 06:43:16;;;;;;;54.17;22.00;;;3.70;99.90;;;;;;5065901;28;20048;-58
2022/12/06 06:45:58;;;;;;;50.25;22.58;;;3.70;99.90;;;;;;5080644;28;20468;-59
2022/12/06 06:48:26;;;;;;;22.85;9.23;;;3.70;99.90;;;;;;5078423;28;20035;-59
2022/12/06 06:50:52;;;;;;;21.95;9.27;;;3.70;99.90;;;;;;5083063;28;20390;-59
2022/12/06 06:53:18;;;;;;;19.15;8.05;;;3.80;99.90;;;;;;5078717;28;20642;-58
2022/12/06 06:55:45;;;;;;;9.43;4.32;;;3.70;99.90;;;;;;5082867;28;20035;-57
2022/12/06 06:58:13;;;;;;;5.53;3.58;;;3.70;99.90;;;;;;5072506;28;20093;-59
2022/12/06 07:00:40;;;;;;;7.75;3.42;;;3.70;99.90;;;;;;5078051;28;20051;-58
2022/12/06 07:03:06;;;;;;;7.13;2.58;;;3.70;99.90;;;;;;5072526;28;20093;-57
2022/12/06 07:05:31;;;;;;;6.82;2.55;;;3.60;99.90;;;;;;5081655;28;20040;-58
2022/12/06 07:07:57;;;;;;;8.57;2.50;;;3.60;99.90;;;;;;5083055;28;20044;-58
2022/12/06 07:10:26;;;;;;;7.28;2.72;;;3.60;99.90;;;;;;5081412;28;20127;-59
2022/12/06 07:12:53;;;;;;;9.23;2.67;;;3.60;99.90;;;;;;5079170;28;20050;-58
2022/12/06 07:15:20;;;;;;;5.10;2.35;;;3.50;99.90;;;;;;5095031;27;20106;-57
2022/12/06 07:17:46;;;;;;;7.22;2.53;;;3.50;99.90;;;;;;5078312;28;20055;-57
2022/12/06 07:20:12;;;;;;;15.45;5.07;;;3.50;99.90;;;;;;5077089;28;20178;-59
2022/12/06 07:22:38;;;;;;;6.28;2.65;;;3.60;99.90;;;;;;5075690;28;20044;-59
2022/12/06 07:25:04;;;;;;;5.60;2.78;;;3.60;99.90;;;;;;5045042;28;20036;-58
2022/12/06 07:27:35;;;;;;;5.57;2.70;;;3.50;99.90;;;;;;5079801;28;20032;-58
2022/12/06 07:30:05;;;;;;;7.75;3.20;;;3.50;99.90;;;;;;5082031;22;20044;-82
2022/12/06 07:32:35;;;;;;;6.82;2.53;;;3.50;99.90;;;;;;5048301;28;20414;-84
2022/12/06 07:35:02;;;;;;;7.63;2.28;;;3.60;99.90;;;;;;5061437;28;20120;-80
2022/12/06 07:37:28;;;;;;;6.22;2.70;;;3.70;99.90;;;;;;5068064;28;20090;-82
2022/12/06 07:39:54;;;;;;;8.30;3.15;;;3.70;99.90;;;;;;5022652;28;20044;-81
2022/12/06 07:45:06;;;;;;;7.53;4.22;;;3.90;99.90;;;;;;5061492;28;20056;-81
2022/12/06 07:47:40;;;;;;;9.48;3.45;;;3.70;99.90;;;;;;5051965;28;20037;-80
2022/12/06 07:50:09;;;;;;;7.43;3.33;;;3.80;99.90;;;;;;5067460;28;20180;-80
2022/12/06 07:52:35;;;;;;;7.60;3.13;;;3.80;99.90;;;;;;5064063;28;20044;-81
2022/12/06 07:55:03;;;;;;;6.68;3.00;;;3.80;99.90;;;;;;5064799;28;20118;-82
2022/12/06 07:57:29;;;;;;;6.45;3.50;;;3.80;99.90;;;;;;5061886;28;20044;-81
2022/12/06 07:59:55;;;;;;;7.20;3.50;;;3.80;99.90;;;;;;5067732;28;20035;-82
2022/12/06 08:02:24;;;;;;;6.25;3.28;;;3.80;99.90;;;;;;5056914;28;20040;-80
2022/12/06 08:04:51;;;;;;;8.35;3.42;;;4.30;99.90;;;;;;5065071;28;21467;-82
2022/12/06 08:07:17;;;;;;;6.53;3.60;;;3.80;99.90;;;;;;5060223;28;20744;-81
2022/12/06 08:09:43;;;;;;;8.88;4.88;;;3.80;99.90;;;;;;5033449;28;20037;-81
2022/12/06 08:12:09;;;;;;;8.27;5.50;;;3.80;99.90;;;;;;5060869;28;20083;-83
2022/12/06 08:14:35;;;;;;;11.70;6.18;;;3.80;99.90;;;;;;5047302;28;20470;-82
2022/12/06 08:17:02;;;;;;;12.57;7.00;;;3.80;99.90;;;;;;5085645;28;20020;-82
2022/12/06 08:19:29;;;;;;;14.85;6.97;;;3.90;99.90;;;;;;5048155;28;20424;-82
2022/12/06 08:21:55;;;;;;;15.23;7.90;;;3.90;99.90;;;;;;5038715;28;20044;-82
2022/12/06 08:24:21;;;;;;;13.60;7.35;;;4.30;99.90;;;;;;5039479;28;20039;-82
2022/12/06 08:26:47;;;;;;;13.38;6.30;;;3.90;99.90;;;;;;5056409;28;20029;-81
2022/12/06 08:29:13;;;;;;;8.63;5.00;;;3.90;99.90;;;;;;5054880;28;21019;-82
2022/12/06 08:31:39;;;;;;;10.93;4.75;;;4.00;99.90;;;;;;5051153;28;20045;-81
2022/12/06 08:34:05;;;;;;;8.60;4.10;;;4.20;99.90;;;;;;5065140;28;20051;-81
2022/12/06 08:36:31;;;;;;;9.90;4.18;;;4.00;99.90;;;;;;5033527;28;20045;-82
2022/12/06 08:38:58;;;;;;;6.32;3.92;;;4.10;99.90;;;;;;5041430;28;20487;-81
2022/12/06 08:44:12;;;;;;;8.05;4.05;;;4.70;99.90;;;;;;5039577;28;20045;-81
2022/12/06 08:46:38;;;;;;;8.07;3.83;;;4.10;99.90;;;;;;5062308;28;20045;-82
2022/12/06 08:49:05;;;;;;;7.93;3.72;;;4.10;99.90;;;;;;5030741;28;20047;-81
2022/12/06 08:51:32;;;;;;;7.18;3.28;;;4.80;99.90;;;;;;5051992;28;20037;-81
2022/12/06 08:53:58;;;;;;;6.95;4.05;;;4.20;99.90;;;;;;5058800;28;20045;-81
2022/12/06 08:56:23;;;;;;;9.75;3.85;;;4.30;99.90;;;;;;5051571;28;20118;-82
2022/12/06 08:58:52;;;;;;;6.70;3.92;;;4.20;99.90;;;;;;5047642;28;20036;-82
2022/12/06 09:01:23;;;;;;;10.45;4.35;;;4.30;99.90;;;;;;5046016;28;20045;-82
2022/12/06 09:03:49;;;;;;;7.90;3.45;;;4.30;99.90;;;;;;5064023;28;20028;-83
2022/12/06 09:06:16;;;;;;;6.93;3.30;;;4.30;99.90;;;;;;5048202;28;20040;-81
2022/12/06 09:08:41;;;;;;;7.32;3.65;;;4.40;99.90;;;;;;5056458;28;20513;-82
2022/12/06 09:11:08;;;;;;;7.35;3.40;;;4.40;99.90;;;;;;5042871;28;20055;-81
2022/12/06 09:13:35;;;;;;;7.53;3.53;;;4.50;99.90;;;;;;5046544;28;20071;-83
2022/12/06 09:16:12;;;;;;;5.78;3.50;;;4.90;99.90;;;;;;5043273;28;20059;-82
2022/12/06 09:18:37;;;;;;;5.38;3.10;;;4.60;99.90;;;;;;5058323;28;20374;-82
2022/12/06 09:21:09;;;;;;;7.10;3.65;;;4.80;99.90;;;;;;5044626;28;20051;-83
2022/12/06 09:23:35;;;;;;;5.10;3.10;;;4.90;99.90;;;;;;5060043;28;20124;-81
2022/12/06 09:26:02;;;;;;;5.15;2.85;;;4.90;99.90;;;;;;5059760;28;20610;-83
2022/12/06 09:28:28;;;;;;;6.30;3.42;;;5.30;99.90;;;;;;5061815;28;20565;-82
2022/12/06 09:30:55;;;;;;;7.18;3.25;;;5.10;99.90;;;;;;5043509;28;20033;-84
2022/12/06 09:33:21;;;;;;;11.40;3.85;;;5.60;99.90;;;;;;5042163;28;20123;-83
2022/12/06 09:35:49;;;;;;;11.45;3.97;;;5.10;99.90;;;;;;5042784;28;20067;-84
2022/12/06 09:38:15;;;;;;;7.40;4.00;;;5.60;99.90;;;;;;5051573;28;20033;-82
2022/12/06 09:41:18;;;;;;;6.75;3.45;;;5.10;99.90;;;;;;5061019;28;20124;-82
2022/12/06 09:44:11;;;;;;;25.73;6.07;;;5.10;99.90;;;;;;5058521;28;20045;-80
2022/12/06 09:47:12;;;;;;;9.38;3.70;;;5.20;99.90;;;;;;5045990;28;20044;-81
2022/12/06 09:49:46;;;;;;;7.30;3.45;;;5.20;99.90;;;;;;5038714;28;20080;-82
2022/12/06 09:52:41;;;;;;;9.40;4.43;;;5.50;99.90;;;;;;5056599;28;20080;-84
2022/12/06 09:55:16;;;;;;;6.40;3.85;;;5.30;99.90;;;;;;5045649;28;20040;-83
2022/12/06 09:57:56;;;;;;;9.02;4.78;;;5.30;99.90;;;;;;5065480;28;20032;-83
2022/12/06 10:00:23;;;;;;;6.57;2.90;;;5.30;99.90;;;;;;5045806;28;20045;-82
2022/12/06 10:02:51;;;;;;;5.57;2.63;;;5.80;99.90;;;;;;5053199;28;20120;-83
2022/12/06 10:05:46;;;;;;;6.50;2.90;;;5.50;99.90;;;;;;5060017;28;20037;-83
2022/12/06 10:08:21;;;;;;;5.72;2.25;;;5.70;99.90;;;;;;5048125;28;20107;-81
2022/12/06 10:10:49;;;;;;;7.53;2.78;;;5.60;99.90;;;;;;5044163;28;20102;-83
2022/12/06 10:13:21;;;;;;;6.88;2.50;;;5.60;99.90;;;;;;5050007;28;20039;-82
2022/12/06 10:16:10;;;;;;;7.85;3.38;;;5.70;99.90;;;;;;5073255;28;20040;-83
2022/12/06 10:19:02;;;;;;;6.53;2.20;;;5.70;99.90;;;;;;5046493;28;20054;-83
2022/12/06 10:21:51;;;;;;;6.70;2.47;;;6.00;99.90;;;;;;5052163;28;20044;-82
2022/12/06 10:24:31;;;;;;;5.15;2.75;;;5.80;99.90;;;;;;5015749;28;20036;-83
2022/12/06 10:27:07;;;;;;;4.85;2.45;;;5.90;99.90;;;;;;5063753;28;20040;-82
2022/12/06 10:29:56;;;;;;;7.63;2.40;;;6.60;99.90;;;;;;5081602;28;20052;-83
2022/12/06 10:32:45;;;;;;;3.92;1.80;;;5.90;99.90;;;;;;5060487;28;20079;-83
2022/12/06 10:35:41;;;;;;;5.80;2.72;;;6.00;99.90;;;;;;5064481;28;20040;-80
2022/12/06 10:38:10;;;;;;;6.60;2.45;;;6.00;99.90;;;;;;5041727;28;20052;-83
2022/12/06 10:40:44;;;;;;;4.93;2.42;;;6.00;99.90;;;;;;5049067;28;20068;-82
2022/12/06 10:43:29;;;;;;;4.28;2.58;;;6.10;99.90;;;;;;5082455;28;20043;-83
2022/12/06 10:48:59;;;;;;;4.32;1.75;;;6.10;99.90;;;;;;5062363;28;20064;-82
2022/12/06 10:51:40;;;;;;;6.47;2.90;;;6.20;99.90;;;;;;5066181;28;20071;-83
2022/12/06 10:54:33;;;;;;;5.53;2.40;;;6.20;99.90;;;;;;5043840;28;20075;-82
2022/12/06 10:57:03;;;;;;;4.82;2.38;;;6.30;99.90;;;;;;5043492;28;20107;-84
2022/12/06 10:59:38;;;;;;;10.95;3.25;;;6.20;99.90;;;;;;5042665;28;20591;-81
2022/12/06 11:02:36;;;;;;;6.10;2.80;;;6.30;99.90;;;;;;5064128;28;20036;-82
2022/12/06 11:05:15;;;;;;;5.85;2.75;;;6.50;99.90;;;;;;5043274;28;20052;-83
2022/12/06 11:07:44;;;;;;;3.05;2.03;;;6.40;99.90;;;;;;5049397;28;20039;-82
2022/12/06 11:10:23;;;;;;;4.07;2.40;;;6.90;99.90;;;;;;5066504;28;20045;-82
2022/12/06 11:12:57;;;;;;;6.03;2.28;;;6.50;99.90;;;;;;5063346;28;20055;-80
2022/12/06 11:15:32;;;;;;;4.70;2.00;;;6.80;99.90;;;;;;5051268;28;20068;-82
2022/12/06 11:18:18;;;;;;;3.42;1.80;;;6.70;99.90;;;;;;5065260;28;20082;-81
2022/12/06 11:20:47;;;;;;;5.63;1.70;;;6.50;99.90;;;;;;5064709;28;20133;-80
2022/12/06 11:23:31;;;;;;;5.05;2.10;;;6.50;99.90;;;;;;5075736;28;20428;-82
2022/12/06 11:26:14;;;;;;;7.25;2.05;;;6.50;99.90;;;;;;5063297;28;20133;-81
2022/12/06 11:28:42;;;;;;;3.92;2.10;;;6.60;99.90;;;;;;5062816;28;20037;-81
2022/12/06 11:31:22;;;;;;;4.40;1.85;;;6.60;99.90;;;;;;5048024;28;20123;-81
2022/12/06 11:33:48;;;;;;;4.22;1.90;;;6.70;99.90;;;;;;5045696;28;20045;-81
2022/12/06 11:36:14;;;;;;;4.95;2.15;;;6.70;99.90;;;;;;5020416;28;20119;-81
2022/12/06 11:38:42;;;;;;;4.43;2.30;;;7.40;99.90;;;;;;5034020;28;20033;-81
2022/12/06 11:41:13;;;;;;;6.18;1.95;;;6.70;99.90;;;;;;5050095;28;20497;-81
2022/12/06 11:43:39;;;;;;;4.50;2.00;;;6.70;99.90;;;;;;5059432;28;20055;-81
2022/12/06 11:46:07;;;;;;;5.63;2.22;;;6.70;99.90;;;;;;5025947;28;20028;-81
2022/12/06 11:48:34;;;;;;;8.00;2.38;;;6.80;99.90;;;;;;5048061;28;20040;-81
2022/12/06 11:51:00;;;;;;;5.90;2.08;;;6.80;99.90;;;;;;5047668;28;20181;-81
2022/12/06 11:53:32;;;;;;;6.25;1.95;;;6.80;99.90;;;;;;5037013;28;20036;-80
2022/12/06 11:56:23;;;;;;;6.45;1.95;;;6.80;99.90;;;;;;5050102;28;20413;-81
2022/12/06 11:59:01;;;;;;;6.20;1.77;;;6.90;99.90;;;;;;5042071;28;20037;-81
2022/12/06 12:01:44;;;;;;;4.82;1.73;;;6.90;99.90;;;;;;5064609;28;20037;-80
2022/12/06 12:04:31;;;;;;;3.15;1.45;;;6.90;99.90;;;;;;5039469;28;20090;-81
2022/12/06 12:07:11;;;;;;;6.30;2.38;;;7.00;99.90;;;;;;5063544;28;20082;-80
2022/12/06 12:09:59;;;;;;;2.70;1.30;;;7.00;99.90;;;;;;5055153;28;20077;-79
2022/12/06 12:13:42;;;;;;;3.75;1.20;;;7.00;99.90;;;;;;5071671;28;20044;-82
2022/12/06 12:15:21;;;;;;;6.85;1.85;;;7.20;99.90;;;;;;5075615;28;20044;-81
2022/12/06 12:17:52;;;;;;;4.68;1.00;;;7.30;99.90;;;;;;5053102;28;20040;-81
2022/12/06 12:20:26;;;;;;;2.33;1.20;;;7.10;99.90;;;;;;5049105;28;20413;-81
2022/12/06 12:23:17;;;;;;;2.13;0.90;;;6.90;99.90;;;;;;5067144;28;20508;-79
2022/12/06 12:25:42;;;;;;;4.45;1.20;;;6.90;99.90;;;;;;5062103;28;20036;-81
2022/12/06 12:28:26;;;;;;;5.10;1.10;;;6.90;99.90;;;;;;5030793;28;20051;-81
2022/12/06 12:30:55;;;;;;;4.50;0.90;;;6.90;99.90;;;;;;5050337;28;20405;-81
2022/12/06 12:33:23;;;;;;;8.35;1.75;;;6.90;99.90;;;;;;5044604;28;20025;-81
2022/12/06 12:36:03;;;;;;;4.20;0.98;;;6.90;99.90;;;;;;5044835;28;20032;-79
2022/12/06 12:38:59;;;;;;;4.05;1.27;;;7.00;99.90;;;;;;5043165;28;20035;-80
2022/12/06 12:41:41;;;;;;;1.70;0.90;;;7.00;99.90;;;;;;5045391;28;20660;-81
2022/12/06 12:44:33;;;;;;;2.92;1.10;;;7.00;99.90;;;;;;5081702;28;20063;-79
2022/12/06 12:47:18;;;;;;;2.90;0.93;;;7.00;99.90;;;;;;5070293;28;20121;-80
2022/12/06 12:50:17;;;;;;;3.47;1.23;;;7.10;99.90;;;;;;5066864;28;20049;-80
2022/12/06 12:52:43;;;;;;;2.78;1.25;;;7.10;99.90;;;;;;5070023;28;20036;-81
2022/12/06 12:55:12;;;;;;;4.10;1.20;;;7.10;99.90;;;;;;5045177;28;20132;-79
2022/12/06 12:57:38;;;;;;;2.17;1.20;;;7.10;99.90;;;;;;5051452;28;20420;-80
2022/12/06 13:00:05;;;;;;;3.35;1.50;;;7.40;99.90;;;;;;5033699;28;20035;-79
2022/12/06 13:02:33;;;;;;;3.28;1.05;;;7.10;99.90;;;;;;5063935;28;20040;-81
2022/12/06 13:05:22;;;;;;;3.10;1.17;;;7.20;99.90;;;;;;5050932;28;20043;-81
2022/12/06 13:07:51;;;;;;;2.88;1.25;;;7.10;99.90;;;;;;5060714;28;20098;-84
2022/12/06 13:10:26;;;;;;;3.40;1.00;;;7.10;99.90;;;;;;5057471;28;20037;-82
2022/12/06 13:12:57;;;;;;;2.80;0.95;;;7.10;99.90;;;;;;5060843;28;20158;-84
2022/12/06 13:15:35;;;;;;;3.53;0.90;;;7.10;99.90;;;;;;5050529;28;20086;-83
2022/12/06 13:18:11;;;;;;;2.47;0.85;;;7.10;99.90;;;;;;5062617;28;20036;-83
2022/12/06 13:20:39;;;;;;;3.47;1.48;;;7.20;99.90;;;;;;5043830;28;20037;-82
2022/12/06 13:23:26;;;;;;;2.05;1.17;;;7.20;99.90;;;;;;5054751;28;20044;-81
2022/12/06 13:26:00;;;;;;;4.88;1.80;;;7.20;99.90;;;;;;5062963;28;20446;-80
2022/12/06 13:28:32;;;;;;;4.18;2.00;;;7.20;99.90;;;;;;5065934;28;20049;-81
2022/12/06 13:31:04;;;;;;;6.18;2.60;;;7.50;99.90;;;;;;5066875;28;20111;-82
2022/12/06 13:33:37;;;;;;;7.15;3.88;;;7.20;99.90;;;;;;5057972;28;20142;-81
2022/12/06 13:36:08;;;;;;;5.32;2.50;;;7.20;99.90;;;;;;5058075;28;20032;-81
2022/12/06 13:38:39;;;;;;;5.28;1.55;;;7.20;99.90;;;;;;5067868;28;20060;-80
2022/12/06 13:41:06;;;;;;;3.45;1.20;;;7.80;99.90;;;;;;5063859;28;20501;-81
2022/12/06 13:43:31;;;;;;;5.90;1.58;;;7.20;99.90;;;;;;5064342;28;20075;-81